KBNO/BNO METAR and TAF weather

Enter ICAO airport designator
Station Type Date Time Source
KBNO METAR 2020/10/29 16:53 UTC NOAA

KBNO 291653Z AUTO 00000KT 6SM HZ CLR 07/M05 A3029 RMK AO2 SLP267 T00721050


Station Type Date Time Source
KBNO Decoded METAR 2020/10/29 16:53 UTC NOAA

BURNS MUNICIPAL AIRPORT, OR, United States (KBNO) 43-36N 118-57W 1264M
Oct 29, 2020 - 12:53 PM EDT / 2020.10.29 1653 UTC
Wind: Calm:0
Visibility: 6 mile(s):0
Sky conditions: clear
Weather: haze
Temperature: 45.0 F (7.2 C)
Dew Point: 23.0 F (-5.0 C)
Relative Humidity: 41%
Pressure (altimeter): 30.29 in. Hg (1025 hPa)
ob: KBNO 291653Z AUTO 00000KT 6SM HZ CLR 07/M05 A3029 RMK AO2 SLP267 T00721050
cycle: 17

Station Type Date Time Source
KBNO TAF 2020/10/29 18:22 UTC NOAA

TAF KBNO 291720Z 2918/3018 VRB06KT P6SM SKC

Example: see airport list